Time;durP1;ratioP1;P1;durP2;ratioP2;P2;SDS_P1;SDS_P2;PMS_P1;PMS_P2;Temp;Humidity;BMP_temperature;BMP_pressure;BME280_temperature;BME280_humidity;BME280_pressure;Samples;Min_cycle;Max_cycle;Signal;HPM_P1;HPM_P2
2023/12/17 00:01:20;;;;;;;10.50;10.20;;;1.30;99.90;;;;;;5081799;28;20231;-80
2023/12/17 00:03:48;;;;;;;10.63;10.33;;;1.20;99.90;;;;;;5063611;28;20231;-79
2023/12/17 00:06:15;;;;;;;10.83;10.53;;;1.10;99.90;;;;;;5063923;28;20227;-80
2023/12/17 00:08:42;;;;;;;10.77;10.47;;;1.10;99.90;;;;;;5062846;28;20277;-81
2023/12/17 00:11:10;;;;;;;10.70;10.40;;;1.00;99.90;;;;;;5063303;28;20261;-80
2023/12/17 00:13:38;;;;;;;10.90;10.50;;;1.00;99.90;;;;;;5064395;28;20275;-80
2023/12/17 00:16:06;;;;;;;10.97;10.57;;;1.00;99.90;;;;;;5062969;28;20277;-82
2023/12/17 00:18:35;;;;;;;10.73;10.43;;;1.00;99.90;;;;;;5063415;28;20281;-80
2023/12/17 00:21:03;;;;;;;10.67;10.37;;;1.00;99.90;;;;;;5061526;28;20226;-80
2023/12/17 00:23:30;;;;;;;11.10;10.70;;;1.00;99.90;;;;;;5062100;28;20215;-81
2023/12/17 00:25:57;;;;;;;10.50;10.20;;;1.00;99.90;;;;;;5066343;28;20226;-81
2023/12/17 00:28:24;;;;;;;11.07;10.67;;;1.00;99.90;;;;;;5082078;28;21079;-80
2023/12/17 00:30:51;;;;;;;10.70;10.40;;;1.10;99.90;;;;;;5076088;28;20260;-79
2023/12/17 00:33:19;;;;;;;10.60;10.30;;;1.00;99.90;;;;;;5077546;28;20226;-81
2023/12/17 00:35:47;;;;;;;10.53;10.23;;;1.00;99.90;;;;;;5082686;28;20288;-80
2023/12/17 00:38:15;;;;;;;10.60;10.30;;;1.00;99.90;;;;;;5081910;28;20252;-79
2023/12/17 00:40:42;;;;;;;10.40;10.10;;;1.00;99.90;;;;;;5082337;28;20226;-80
2023/12/17 00:43:09;;;;;;;10.50;10.20;;;1.00;99.90;;;;;;5073705;28;20234;-80
2023/12/17 00:45:36;;;;;;;10.50;10.20;;;1.00;99.90;;;;;;5081604;28;20279;-80
2023/12/17 00:48:04;;;;;;;10.60;10.30;;;1.00;99.90;;;;;;5072653;28;20222;-79
2023/12/17 00:50:31;;;;;;;10.50;10.20;;;1.00;99.90;;;;;;5081342;28;20237;-79
2023/12/17 00:53:00;;;;;;;10.50;10.20;;;1.00;99.90;;;;;;5081938;28;20230;-79
2023/12/17 00:55:27;;;;;;;10.93;10.53;;;1.00;99.90;;;;;;5080728;28;20252;-79
2023/12/17 00:57:54;;;;;;;10.60;10.30;;;1.00;99.90;;;;;;5081892;28;20287;-79
2023/12/17 01:00:21;;;;;;;10.63;10.33;;;1.00;99.90;;;;;;5081501;28;20238;-79
2023/12/17 01:02:49;;;;;;;10.97;10.57;;;1.00;99.90;;;;;;5081466;28;20281;-79
2023/12/17 01:05:16;;;;;;;11.10;10.70;;;1.00;99.90;;;;;;5076131;28;20270;-79
2023/12/17 01:07:43;;;;;;;10.37;10.07;;;1.00;99.90;;;;;;5080780;28;20287;-79
2023/12/17 01:10:12;;;;;;;10.97;10.57;;;1.00;99.90;;;;;;5081299;28;20218;-78
2023/12/17 01:12:40;;;;;;;10.73;10.43;;;1.00;99.90;;;;;;5080974;28;20238;-80
2023/12/17 01:15:08;;;;;;;10.90;10.50;;;1.00;99.90;;;;;;5061026;28;20325;-79
2023/12/17 01:17:35;;;;;;;11.03;10.63;;;0.90;99.90;;;;;;5068748;28;20285;-79
2023/12/17 01:20:03;;;;;;;10.90;10.50;;;0.90;99.90;;;;;;5072017;28;20226;-79
2023/12/17 01:22:30;;;;;;;11.23;10.83;;;0.90;99.90;;;;;;5084222;28;20298;-78
2023/12/17 01:24:57;;;;;;;10.63;10.33;;;0.90;99.90;;;;;;5075737;28;20261;-79
2023/12/17 01:27:26;;;;;;;11.07;10.67;;;0.80;99.90;;;;;;5081634;28;20226;-80
2023/12/17 01:29:53;;;;;;;10.50;10.20;;;0.80;99.90;;;;;;5071423;28;20257;-79
2023/12/17 01:32:20;;;;;;;10.77;10.47;;;0.80;99.90;;;;;;5061532;28;20281;-79
2023/12/17 01:34:48;;;;;;;10.63;10.33;;;0.90;99.90;;;;;;5060797;28;20235;-79
2023/12/17 01:37:15;;;;;;;10.17;9.87;;;0.90;99.90;;;;;;5061415;28;20321;-79
2023/12/17 01:39:42;;;;;;;10.67;10.37;;;0.90;99.90;;;;;;5061120;28;20231;-80
2023/12/17 01:42:09;;;;;;;10.70;10.40;;;0.90;99.90;;;;;;5061214;28;20230;-79
2023/12/17 01:44:38;;;;;;;11.10;10.70;;;0.90;99.90;;;;;;5061099;28;20242;-79
2023/12/17 01:47:06;;;;;;;11.00;10.60;;;0.90;99.90;;;;;;5060978;28;20227;-79
2023/12/17 01:49:33;;;;;;;11.03;10.63;;;0.80;99.90;;;;;;5060671;28;20296;-79
2023/12/17 01:52:01;;;;;;;10.63;10.33;;;0.90;99.90;;;;;;5060769;28;20223;-79
2023/12/17 01:54:28;;;;;;;10.97;10.57;;;0.90;99.90;;;;;;5060639;28;20238;-79
2023/12/17 01:56:56;;;;;;;10.90;10.50;;;0.90;99.90;;;;;;5060816;28;20227;-79
2023/12/17 01:59:23;;;;;;;10.70;10.40;;;1.00;99.90;;;;;;5060986;28;20230;-79
2023/12/17 02:01:54;;;;;;;10.57;10.27;;;1.00;99.90;;;;;;5060783;28;20241;-79
2023/12/17 02:04:22;;;;;;;10.50;10.20;;;1.10;99.90;;;;;;5063514;28;20282;-79
2023/12/17 02:06:49;;;;;;;10.47;10.17;;;1.10;99.90;;;;;;5063841;28;20766;-80
2023/12/17 02:09:17;;;;;;;10.47;10.17;;;1.10;99.90;;;;;;5066255;28;20288;-79
2023/12/17 02:11:44;;;;;;;10.70;10.40;;;1.10;99.90;;;;;;5074279;28;20218;-79
2023/12/17 02:14:11;;;;;;;10.67;10.37;;;1.10;99.90;;;;;;5079712;28;20273;-79
2023/12/17 02:16:38;;;;;;;10.70;10.40;;;1.10;99.90;;;;;;5072087;28;20218;-79
2023/12/17 02:19:07;;;;;;;10.70;10.40;;;1.10;99.90;;;;;;5083309;28;20226;-79
2023/12/17 02:21:34;;;;;;;10.60;10.30;;;1.10;99.90;;;;;;5075673;28;20230;-79
2023/12/17 02:24:03;;;;;;;10.50;10.20;;;1.00;99.90;;;;;;5067312;28;20296;-79
2023/12/17 02:26:30;;;;;;;10.70;10.40;;;1.00;99.90;;;;;;5077230;28;20258;-79
2023/12/17 02:28:58;;;;;;;10.73;10.43;;;0.90;99.90;;;;;;5080069;28;20222;-79
2023/12/17 02:31:25;;;;;;;10.80;10.50;;;0.90;99.90;;;;;;5077875;28;20237;-80
2023/12/17 02:33:52;;;;;;;10.90;10.50;;;0.80;99.90;;;;;;5083831;28;20230;-80
2023/12/17 02:36:19;;;;;;;11.20;10.80;;;0.80;99.90;;;;;;5080458;28;20242;-80
2023/12/17 02:38:46;;;;;;;11.30;10.90;;;0.60;99.90;;;;;;5086938;28;20257;-80
2023/12/17 02:41:15;;;;;;;11.10;10.70;;;0.50;99.90;;;;;;5083161;28;20231;-79
2023/12/17 02:43:42;;;;;;;11.23;10.83;;;0.50;99.90;;;;;;5082258;28;20233;-80
2023/12/17 02:46:09;;;;;;;11.00;10.60;;;0.50;99.90;;;;;;5078280;28;20281;-80
2023/12/17 02:48:37;;;;;;;11.10;10.70;;;0.50;99.90;;;;;;5084587;28;20284;-79
2023/12/17 02:51:05;;;;;;;11.10;10.70;;;0.50;99.90;;;;;;5075498;28;20234;-80
2023/12/17 02:53:32;;;;;;;11.00;10.60;;;0.60;99.90;;;;;;5077425;28;20235;-80
2023/12/17 02:56:01;;;;;;;11.10;10.70;;;0.50;99.90;;;;;;5081816;28;20245;-79
2023/12/17 02:58:29;;;;;;;10.90;10.50;;;0.60;99.90;;;;;;5084505;28;20277;-79
2023/12/17 03:00:57;;;;;;;11.10;10.70;;;0.60;99.90;;;;;;5083520;28;20223;-79
2023/12/17 03:03:24;;;;;;;11.13;10.73;;;0.60;99.90;;;;;;5083330;28;20226;-80
2023/12/17 03:05:51;;;;;;;11.23;10.83;;;0.50;99.90;;;;;;5073730;28;20235;-79
2023/12/17 03:08:18;;;;;;;11.17;10.77;;;0.50;99.90;;;;;;5076549;28;20226;-79
2023/12/17 03:10:46;;;;;;;10.83;10.43;;;0.50;99.90;;;;;;5075079;28;20269;-80
2023/12/17 03:13:13;;;;;;;11.00;10.60;;;0.40;99.90;;;;;;5063014;28;20336;-80
2023/12/17 03:15:41;;;;;;;11.03;10.63;;;0.40;99.90;;;;;;5063034;28;20234;-79
2023/12/17 03:18:09;;;;;;;11.20;10.80;;;0.50;99.90;;;;;;5063440;28;20235;-80
2023/12/17 03:20:36;;;;;;;10.83;10.43;;;0.50;99.90;;;;;;5063566;28;20273;-80
2023/12/17 03:23:03;;;;;;;11.17;10.77;;;0.50;99.90;;;;;;5063753;28;20239;-80
2023/12/17 03:25:31;;;;;;;11.20;10.80;;;0.50;99.90;;;;;;5071158;28;20293;-80
2023/12/17 03:27:58;;;;;;;11.00;10.60;;;0.50;99.90;;;;;;5078005;28;20219;-79
2023/12/17 03:30:25;;;;;;;10.93;10.53;;;0.50;99.90;;;;;;5077971;28;20302;-78
2023/12/17 03:32:54;;;;;;;10.57;10.27;;;0.50;99.90;;;;;;5077459;28;20262;-78
2023/12/17 03:35:26;;;;;;;10.57;10.27;;;0.50;99.90;;;;;;5069767;28;20314;-79
2023/12/17 03:37:53;;;;;;;11.00;10.60;;;0.50;99.90;;;;;;5067508;28;20250;-80
2023/12/17 03:40:21;;;;;;;11.03;10.63;;;0.50;99.90;;;;;;5065306;28;20226;-79
2023/12/17 03:42:48;;;;;;;11.33;10.93;;;0.50;99.90;;;;;;5063438;28;20226;-78
2023/12/17 03:45:15;;;;;;;10.90;10.50;;;0.40;99.90;;;;;;5063546;28;20305;-79
2023/12/17 03:47:47;;;;;;;10.87;10.47;;;0.40;99.90;;;;;;5063289;28;20235;-80
2023/12/17 03:50:17;;;;;;;10.87;10.47;;;0.40;99.90;;;;;;5062755;28;20223;-80
2023/12/17 03:52:46;;;;;;;10.60;10.30;;;0.40;99.90;;;;;;5063825;28;20296;-80
2023/12/17 03:55:14;;;;;;;10.90;10.50;;;0.40;99.90;;;;;;5062700;28;20281;-80
2023/12/17 03:57:42;;;;;;;10.80;10.40;;;0.40;99.90;;;;;;5067389;28;20234;-80
2023/12/17 04:00:10;;;;;;;10.60;10.30;;;0.40;99.90;;;;;;5068152;28;20312;-79
2023/12/17 04:02:38;;;;;;;10.90;10.50;;;0.40;99.90;;;;;;5067709;28;20242;-79
2023/12/17 04:05:06;;;;;;;10.67;10.37;;;0.40;99.90;;;;;;5063824;28;20238;-79
2023/12/17 04:07:35;;;;;;;10.90;10.50;;;0.40;99.90;;;;;;5063696;28;20309;-80
2023/12/17 04:10:03;;;;;;;10.57;10.27;;;0.40;99.90;;;;;;5063999;28;20227;-80
2023/12/17 04:12:31;;;;;;;10.40;10.10;;;0.40;99.90;;;;;;5063166;28;20239;-79
2023/12/17 04:14:59;;;;;;;10.57;10.27;;;0.40;99.90;;;;;;5062928;28;20231;-80
2023/12/17 04:17:26;;;;;;;10.97;10.57;;;0.40;99.90;;;;;;5062477;28;20295;-79
2023/12/17 04:19:53;;;;;;;10.70;10.40;;;0.40;99.90;;;;;;5062715;28;20237;-80
2023/12/17 04:22:20;;;;;;;10.90;10.50;;;0.50;99.90;;;;;;5062582;28;20239;-79
2023/12/17 04:24:49;;;;;;;10.73;10.43;;;0.50;99.90;;;;;;5061552;28;20242;-80
2023/12/17 04:27:16;;;;;;;10.73;10.43;;;0.50;99.90;;;;;;5061791;28;20223;-79
2023/12/17 04:29:43;;;;;;;10.53;10.23;;;0.50;99.90;;;;;;5062242;28;20254;-80
2023/12/17 04:32:11;;;;;;;10.53;10.23;;;0.50;99.90;;;;;;5074812;28;20234;-80
2023/12/17 04:34:38;;;;;;;10.83;10.43;;;0.50;99.90;;;;;;5082178;28;20233;-80
2023/12/17 04:37:06;;;;;;;10.70;10.40;;;0.50;99.90;;;;;;5070436;28;20226;-80
2023/12/17 04:39:33;;;;;;;10.87;10.47;;;0.50;99.90;;;;;;5062158;28;20226;-80
2023/12/17 04:42:01;;;;;;;10.90;10.50;;;0.50;99.90;;;;;;5061958;28;20234;-79
2023/12/17 04:44:29;;;;;;;10.80;10.40;;;0.50;99.90;;;;;;5061841;28;20242;-79
2023/12/17 04:46:57;;;;;;;11.10;10.70;;;0.40;99.90;;;;;;5074345;28;20222;-79
2023/12/17 04:49:24;;;;;;;10.90;10.50;;;0.40;99.90;;;;;;5075957;28;20314;-80
2023/12/17 04:51:51;;;;;;;10.90;10.50;;;0.40;99.90;;;;;;5079192;28;20288;-80
2023/12/17 04:54:19;;;;;;;11.00;10.60;;;0.30;99.90;;;;;;5068615;28;20231;-80
2023/12/17 04:56:46;;;;;;;10.90;10.50;;;0.30;99.90;;;;;;5061806;28;20296;-79
2023/12/17 04:59:14;;;;;;;10.90;10.50;;;0.20;99.90;;;;;;5061962;28;20235;-80
2023/12/17 05:01:42;;;;;;;10.90;10.50;;;0.30;99.90;;;;;;5061614;28;20231;-79
2023/12/17 05:04:09;;;;;;;10.97;10.57;;;0.30;99.90;;;;;;5061348;28;20243;-81
2023/12/17 05:06:36;;;;;;;10.80;10.43;;;0.20;99.90;;;;;;5061338;28;20239;-80
2023/12/17 05:09:04;;;;;;;11.00;10.60;;;0.20;99.90;;;;;;5061472;28;20223;-80
2023/12/17 05:11:31;;;;;;;11.00;10.60;;;0.20;99.90;;;;;;5061120;28;20235;-79
2023/12/17 05:13:58;;;;;;;11.03;10.63;;;0.10;99.90;;;;;;5061598;28;20231;-79
2023/12/17 05:16:27;;;;;;;10.93;10.53;;;0.00;99.90;;;;;;5062281;28;20238;-78
2023/12/17 05:18:54;;;;;;;10.97;10.57;;;0.00;99.90;;;;;;5062645;28;20235;-79
2023/12/17 05:21:21;;;;;;;11.00;10.60;;;0.00;99.90;;;;;;5066241;28;20257;-79
2023/12/17 05:23:49;;;;;;;11.00;10.60;;;0.00;99.90;;;;;;5062171;28;20238;-79
2023/12/17 05:26:16;;;;;;;11.00;10.60;;;0.00;99.90;;;;;;5061664;28;20239;-79
2023/12/17 05:28:43;;;;;;;11.10;10.70;;;0.00;99.90;;;;;;5061752;28;20235;-79
2023/12/17 05:31:11;;;;;;;11.10;10.70;;;0.00;99.90;;;;;;5061889;28;20328;-79
2023/12/17 05:33:39;;;;;;;11.20;10.80;;;0.00;99.90;;;;;;5061216;28;20230;-79
2023/12/17 05:36:08;;;;;;;11.10;10.70;;;0.00;99.90;;;;;;5073057;28;20214;-78
2023/12/17 05:38:35;;;;;;;11.10;10.70;;;0.00;99.90;;;;;;5080291;28;20230;-79
2023/12/17 05:41:02;;;;;;;11.10;10.70;;;-0.10;99.90;;;;;;5082048;28;20273;-79
2023/12/17 05:43:29;;;;;;;11.17;10.77;;;-0.10;99.90;;;;;;5074044;28;20232;-80
2023/12/17 05:45:56;;;;;;;11.20;10.80;;;-0.10;99.90;;;;;;5081457;28;20269;-80
2023/12/17 05:48:24;;;;;;;11.00;10.60;;;-0.10;99.90;;;;;;5081436;28;20234;-79
2023/12/17 05:50:52;;;;;;;11.07;10.67;;;-0.10;99.90;;;;;;5081735;28;20234;-79
2023/12/17 05:53:20;;;;;;;11.10;10.70;;;-0.10;99.90;;;;;;5081693;28;20226;-79
2023/12/17 05:55:47;;;;;;;10.93;10.53;;;-0.10;99.90;;;;;;5078081;28;20291;-79
2023/12/17 05:58:14;;;;;;;11.00;10.60;;;-0.10;99.90;;;;;;5080322;28;20280;-80
2023/12/17 06:00:41;;;;;;;11.00;10.60;;;0.00;99.90;;;;;;5072452;28;20256;-79
2023/12/17 06:03:08;;;;;;;11.40;11.00;;;0.00;99.90;;;;;;5081595;28;20234;-80
2023/12/17 06:05:36;;;;;;;11.10;10.70;;;0.00;99.90;;;;;;5080765;28;20250;-80
2023/12/17 06:08:10;;;;;;;11.20;10.80;;;-0.10;99.90;;;;;;5087639;22;20242;-86
2023/12/17 06:10:38;;;;;;;11.03;10.63;;;-0.20;99.90;;;;;;5065548;28;20222;-86
2023/12/17 06:13:07;;;;;;;11.20;10.80;;;-0.10;99.90;;;;;;5065052;28;20288;-86
2023/12/17 06:15:35;;;;;;;10.90;10.50;;;-0.10;99.90;;;;;;5064865;28;20215;-87
2023/12/17 06:18:16;;;;;;;10.73;10.37;;;-0.20;99.90;;;;;;5064971;28;20230;-87
2023/12/17 06:20:44;;;;;;;10.87;10.47;;;-0.20;99.90;;;;;;5063027;28;20294;-87
2023/12/17 06:23:15;;;;;;;11.20;10.80;;;-0.20;99.90;;;;;;5048286;28;20296;-86
2023/12/17 06:25:42;;;;;;;10.90;10.50;;;-0.30;99.90;;;;;;5064362;28;20235;-87
2023/12/17 06:28:21;;;;;;;11.17;10.77;;;-0.20;99.90;;;;;;5047075;28;20235;-88
2023/12/17 06:30:51;;;;;;;10.93;10.53;;;-0.10;99.90;;;;;;5065352;28;20227;-88
2023/12/17 06:33:20;;;;;;;11.00;10.60;;;-0.20;99.90;;;;;;5060153;28;20226;-89
2023/12/17 06:35:48;;;;;;;10.63;10.33;;;-0.20;99.90;;;;;;5066211;28;20230;-89
2023/12/17 06:41:05;;;;;;;10.90;10.50;;;-0.20;99.90;;;;;;5063959;28;20238;-89
2023/12/17 06:43:36;;;;;;;10.87;10.47;;;-0.20;99.90;;;;;;5064699;28;20767;-89
2023/12/17 06:46:04;;;;;;;10.70;10.33;;;-0.20;99.90;;;;;;5064257;28;20230;-88
2023/12/17 06:48:34;;;;;;;10.90;10.50;;;-0.20;99.90;;;;;;5065381;28;20316;-88
2023/12/17 06:51:02;;;;;;;10.83;10.43;;;-0.20;99.90;;;;;;5067309;28;20234;-87
2023/12/17 06:56:28;;;;;;;10.93;10.53;;;-0.20;99.90;;;;;;5067032;28;20230;-87
2023/12/17 06:59:07;;;;;;;10.90;10.50;;;-0.10;99.90;;;;;;5067800;28;20245;-86
2023/12/17 07:01:36;;;;;;;10.93;10.53;;;-0.10;99.90;;;;;;5072708;28;20252;-86
2023/12/17 07:04:05;;;;;;;10.90;10.50;;;-0.10;99.90;;;;;;5077055;28;20294;-86
2023/12/17 07:06:36;;;;;;;10.83;10.43;;;0.00;99.90;;;;;;5074528;28;20294;-84
2023/12/17 07:09:07;;;;;;;11.00;10.60;;;0.00;99.90;;;;;;5070441;28;20335;-86
2023/12/17 07:11:35;;;;;;;11.03;10.63;;;0.00;99.90;;;;;;5069122;28;20227;-86
2023/12/17 07:14:03;;;;;;;10.87;10.47;;;0.00;99.90;;;;;;5068168;28;20294;-88
2023/12/17 07:16:42;;;;;;;10.50;10.20;;;0.00;99.90;;;;;;5059210;28;20237;-87
2023/12/17 07:19:11;;;;;;;10.37;10.07;;;0.10;99.90;;;;;;5067126;28;20218;-88
2023/12/17 07:21:40;;;;;;;10.13;9.83;;;0.10;99.90;;;;;;5068086;28;20219;-88
2023/12/17 07:26:56;;;;;;;10.30;10.00;;;0.10;99.90;;;;;;5066362;28;20286;-87
2023/12/17 07:32:05;;;;;;;10.37;10.07;;;0.00;99.90;;;;;;5066259;28;20222;-87
2023/12/17 07:34:34;;;;;;;10.30;10.00;;;0.00;99.90;;;;;;5067752;28;20231;-88
2023/12/17 07:37:03;;;;;;;10.30;10.00;;;0.00;99.90;;;;;;5074322;28;20223;-87
2023/12/17 07:39:41;;;;;;;10.53;10.23;;;0.10;99.90;;;;;;5068083;28;20231;-87
2023/12/17 07:42:21;;;;;;;10.33;10.03;;;0.10;99.90;;;;;;5067778;28;20227;-88
2023/12/17 07:44:49;;;;;;;10.40;10.10;;;0.10;99.90;;;;;;5067092;28;20238;-89
2023/12/17 07:47:18;;;;;;;10.40;10.10;;;0.10;99.90;;;;;;5067368;28;20308;-86
2023/12/17 07:49:57;;;;;;;10.60;10.30;;;0.20;99.90;;;;;;5067645;28;20241;-89
2023/12/17 07:52:27;;;;;;;10.80;10.50;;;0.20;99.90;;;;;;5065699;28;20418;-88
2023/12/17 07:54:58;;;;;;;10.63;10.33;;;0.20;99.90;;;;;;5067334;28;20273;-89
2023/12/17 07:57:25;;;;;;;10.70;10.40;;;0.30;99.90;;;;;;5066787;28;20254;-88
2023/12/17 07:59:54;;;;;;;10.67;10.37;;;0.40;99.90;;;;;;5066260;28;20223;-88
2023/12/17 08:05:05;;;;;;;10.30;10.00;;;0.40;99.90;;;;;;5066008;28;20227;-87
2023/12/17 08:07:33;;;;;;;10.40;10.10;;;0.40;99.90;;;;;;5066250;28;20300;-87
2023/12/17 08:12:50;;;;;;;10.50;10.20;;;0.40;99.90;;;;;;5065324;28;20251;-86
2023/12/17 08:15:19;;;;;;;10.30;10.00;;;0.40;99.90;;;;;;5065627;28;20231;-88
2023/12/17 08:17:58;;;;;;;10.30;10.00;;;0.50;99.90;;;;;;5066341;28;20301;-86
2023/12/17 08:20:27;;;;;;;10.13;9.83;;;0.50;99.90;;;;;;5071578;28;20312;-87
2023/12/17 08:23:06;;;;;;;10.13;9.83;;;0.50;99.90;;;;;;5067730;28;20318;-87
2023/12/17 08:28:30;;;;;;;10.20;9.90;;;0.70;99.90;;;;;;5065763;28;20293;-87
2023/12/17 08:31:09;;;;;;;9.90;9.60;;;0.70;99.90;;;;;;5067115;28;20219;-87
2023/12/17 08:33:38;;;;;;;10.40;10.10;;;0.70;99.90;;;;;;5066074;28;20234;-87
2023/12/17 08:36:07;;;;;;;10.27;9.97;;;0.80;99.90;;;;;;5065472;28;20235;-86
2023/12/17 08:38:47;;;;;;;9.93;9.63;;;0.90;99.90;;;;;;5065507;28;20234;-86
2023/12/17 08:41:17;;;;;;;10.20;9.90;;;1.00;99.90;;;;;;5066592;28;20223;-87
2023/12/17 08:43:45;;;;;;;10.20;9.90;;;1.10;99.90;;;;;;5066644;28;20215;-86
2023/12/17 08:46:14;;;;;;;9.77;9.47;;;1.20;99.90;;;;;;5066380;28;20358;-87
2023/12/17 08:48:43;;;;;;;9.80;9.50;;;1.30;99.90;;;;;;5065730;28;20230;-88
2023/12/17 08:51:13;;;;;;;9.97;9.67;;;1.40;99.90;;;;;;5066343;28;20234;-88
2023/12/17 08:53:42;;;;;;;10.13;9.83;;;1.50;99.90;;;;;;5065807;28;20238;-88
2023/12/17 08:56:12;;;;;;;9.87;9.57;;;1.60;99.90;;;;;;5065833;28;20244;-87
2023/12/17 08:58:43;;;;;;;9.70;9.40;;;1.60;99.90;;;;;;5065089;28;20297;-87
2023/12/17 09:01:12;;;;;;;9.67;9.37;;;1.70;99.90;;;;;;5065020;28;20218;-86
2023/12/17 09:03:41;;;;;;;9.93;9.63;;;1.80;99.90;;;;;;5061722;28;20227;-90
2023/12/17 09:06:09;;;;;;;9.73;9.43;;;2.00;99.90;;;;;;5061360;28;20219;-87
2023/12/17 09:08:39;;;;;;;9.80;9.50;;;2.10;99.90;;;;;;5055742;28;20218;-86
2023/12/17 09:19:48;;;;;;;10.17;9.87;;;2.60;99.90;;;;;;5045560;28;20216;-85
2023/12/17 09:22:18;;;;;;;10.00;9.70;;;2.70;99.90;;;;;;5045885;28;20247;-88
2023/12/17 09:24:46;;;;;;;9.93;9.63;;;3.00;99.90;;;;;;5047198;28;20219;-86
2023/12/17 09:27:16;;;;;;;9.93;9.63;;;3.20;99.90;;;;;;5047097;28;20246;-88
2023/12/17 09:32:44;;;;;;;9.73;9.43;;;3.60;99.90;;;;;;5051155;28;20210;-87
2023/12/17 09:35:11;;;;;;;9.90;9.60;;;3.80;99.90;;;;;;5051275;28;20297;-87
2023/12/17 09:37:41;;;;;;;10.00;9.70;;;3.90;99.90;;;;;;5047548;28;20240;-87
2023/12/17 09:40:10;;;;;;;9.90;9.60;;;4.00;99.90;;;;;;5046039;28;20230;-88
2023/12/17 09:42:38;;;;;;;9.77;9.47;;;4.20;99.90;;;;;;5046181;28;20222;-86
2023/12/17 09:45:16;;;;;;;9.57;9.27;;;4.40;99.90;;;;;;5045626;28;20235;-87
2023/12/17 09:47:56;;;;;;;10.00;9.70;;;4.60;99.90;;;;;;5047568;28;20235;-86
2023/12/17 09:50:27;;;;;;;9.90;9.60;;;4.50;99.90;;;;;;5058752;28;20310;-88
2023/12/17 09:52:55;;;;;;;9.70;9.40;;;4.60;99.90;;;;;;5053262;28;20331;-88
2023/12/17 09:55:23;;;;;;;9.97;9.67;;;4.80;99.90;;;;;;5047717;28;20235;-89
2023/12/17 09:58:02;;;;;;;9.80;9.50;;;5.00;99.90;;;;;;5046229;28;20227;-87
2023/12/17 10:03:28;;;;;;;9.80;9.50;;;5.30;99.90;;;;;;5028350;28;20223;-88
2023/12/17 10:05:58;;;;;;;9.80;9.50;;;5.30;99.90;;;;;;5044636;28;20228;-88
2023/12/17 10:08:37;;;;;;;9.97;9.67;;;5.30;99.90;;;;;;5045987;28;20243;-82
2023/12/17 10:11:07;;;;;;;10.30;10.00;;;5.40;99.90;;;;;;5054259;28;20224;-85
2023/12/17 10:13:35;;;;;;;10.10;9.80;;;5.50;99.90;;;;;;5046365;28;20230;-86
2023/12/17 10:19:11;;;;;;;10.07;9.77;;;5.50;99.90;;;;;;5044586;28;20231;-88
2023/12/17 10:21:38;;;;;;;10.20;9.90;;;5.60;99.90;;;;;;5044635;28;20230;-88
2023/12/17 10:24:09;;;;;;;10.10;9.80;;;5.60;99.90;;;;;;5046543;28;20223;-86
2023/12/17 10:26:55;;;;;;;10.03;9.73;;;5.60;99.90;;;;;;5047104;28;20231;-88
2023/12/17 10:29:24;;;;;;;10.20;9.90;;;5.70;99.90;;;;;;5047233;28;20227;-86
2023/12/17 10:34:41;;;;;;;9.90;9.60;;;5.80;99.90;;;;;;5046343;28;20230;-87
2023/12/17 10:37:11;;;;;;;10.17;9.87;;;5.90;99.90;;;;;;5046897;28;20239;-87
2023/12/17 10:39:39;;;;;;;9.93;9.63;;;6.00;99.90;;;;;;5047678;28;20223;-88
2023/12/17 10:42:09;;;;;;;9.90;9.60;;;6.20;99.90;;;;;;5047266;28;20215;-87
2023/12/17 10:44:38;;;;;;;10.07;9.77;;;6.30;99.90;;;;;;5046643;28;20243;-87
2023/12/17 10:47:16;;;;;;;10.10;9.80;;;6.50;99.90;;;;;;5046848;28;20325;-87
2023/12/17 10:49:46;;;;;;;10.20;9.90;;;6.70;99.90;;;;;;5047222;28;20235;-87
2023/12/17 10:52:26;;;;;;;10.40;10.10;;;6.80;99.90;;;;;;5047482;28;20284;-87
2023/12/17 10:54:53;;;;;;;10.40;10.10;;;7.00;99.90;;;;;;5047449;28;20223;-87
2023/12/17 10:57:24;;;;;;;10.37;10.07;;;7.20;99.90;;;;;;5047355;28;20235;-87
2023/12/17 10:59:55;;;;;;;10.00;9.70;;;7.20;99.90;;;;;;5047737;28;20241;-87
2023/12/17 11:02:39;;;;;;;10.10;9.80;;;7.40;99.90;;;;;;5047022;28;20235;-87
2023/12/17 11:05:09;;;;;;;10.10;9.80;;;7.50;99.90;;;;;;5046678;28;20668;-88
2023/12/17 11:07:50;;;;;;;10.10;9.80;;;7.60;99.90;;;;;;5047159;28;20235;-87
2023/12/17 11:10:19;;;;;;;10.00;9.70;;;7.70;99.90;;;;;;5047324;28;20227;-87
2023/12/17 11:12:47;;;;;;;9.93;9.63;;;7.90;99.90;;;;;;5047035;28;20242;-87
2023/12/17 11:15:18;;;;;;;9.80;9.50;;;8.00;99.90;;;;;;5046916;28;20324;-86
2023/12/17 11:18:03;;;;;;;10.00;9.70;;;8.10;99.90;;;;;;5055110;28;20235;-87
2023/12/17 11:20:34;;;;;;;10.07;9.77;;;8.30;99.90;;;;;;5053234;28;20231;-87
2023/12/17 11:23:04;;;;;;;9.77;9.47;;;8.40;99.90;;;;;;5048230;28;20219;-87
2023/12/17 11:25:33;;;;;;;9.60;9.30;;;8.30;99.90;;;;;;5047761;28;20224;-87
2023/12/17 11:28:01;;;;;;;9.83;9.53;;;8.20;99.90;;;;;;5047518;28;20290;-86
2023/12/17 11:30:31;;;;;;;9.67;9.37;;;8.30;99.90;;;;;;5047515;28;20231;-86
2023/12/17 11:33:02;;;;;;;9.73;9.43;;;8.60;99.90;;;;;;5055230;28;20237;-88
2023/12/17 11:35:32;;;;;;;10.20;9.90;;;8.70;99.90;;;;;;5054194;28;20228;-87
2023/12/17 11:37:59;;;;;;;9.90;9.60;;;8.70;99.90;;;;;;5048946;28;20239;-87
2023/12/17 11:40:28;;;;;;;10.07;9.77;;;8.90;99.90;;;;;;5056583;28;20231;-86
2023/12/17 11:43:06;;;;;;;9.90;9.60;;;9.10;99.90;;;;;;5057577;28;20223;-87
2023/12/17 11:45:36;;;;;;;9.90;9.60;;;9.30;99.90;;;;;;5059158;28;20219;-87
2023/12/17 11:51:01;;;;;;;10.00;9.70;;;9.70;99.90;;;;;;5054676;28;20220;-87
2023/12/17 11:53:31;;;;;;;9.97;9.67;;;10.00;99.90;;;;;;5052874;28;20232;-87
2023/12/17 11:56:00;;;;;;;9.83;9.53;;;10.20;99.90;;;;;;5053544;28;20280;-87
2023/12/17 11:58:30;;;;;;;10.17;9.87;;;10.40;99.90;;;;;;5055464;28;20224;-86
2023/12/17 12:01:17;;;;;;;9.80;9.50;;;10.50;99.90;;;;;;5058394;28;20236;-86
2023/12/17 12:03:50;;;;;;;9.63;9.33;;;10.50;99.90;;;;;;5054208;28;20299;-87
2023/12/17 12:08:55;;;;;;;10.30;10.00;;;10.70;99.90;;;;;;5062851;28;20242;-80
2023/12/17 12:11:32;;;;;;;10.10;9.80;;;10.60;99.90;;;;;;5065894;28;20262;-80
2023/12/17 12:13:59;;;;;;;9.90;9.60;;;10.70;99.90;;;;;;5065348;28;20261;-80
2023/12/17 12:16:27;;;;;;;10.10;9.80;;;10.70;99.90;;;;;;5064167;28;20389;-80
2023/12/17 12:19:05;;;;;;;10.20;9.90;;;10.90;99.90;;;;;;5045067;28;20230;-81
2023/12/17 12:21:33;;;;;;;10.17;9.87;;;11.10;99.90;;;;;;5043070;28;20326;-80
2023/12/17 12:24:01;;;;;;;10.10;9.80;;;11.00;99.90;;;;;;5043682;28;20350;-80
2023/12/17 12:26:29;;;;;;;10.20;9.90;;;10.90;99.90;;;;;;5043166;28;20371;-81
2023/12/17 12:28:57;;;;;;;10.10;9.80;;;11.00;99.90;;;;;;5044544;28;20240;-80
2023/12/17 12:31:25;;;;;;;10.20;9.90;;;11.10;99.90;;;;;;5043504;28;20250;-80
2023/12/17 12:33:58;;;;;;;10.10;9.80;;;11.10;99.90;;;;;;5043392;28;20235;-80
2023/12/17 12:36:27;;;;;;;10.00;9.70;;;11.10;99.90;;;;;;5043351;28;20243;-80
2023/12/17 12:39:02;;;;;;;10.13;9.83;;;11.10;99.90;;;;;;5043772;28;20243;-80
2023/12/17 12:41:29;;;;;;;10.20;9.90;;;11.30;99.90;;;;;;5044044;28;20253;-81
2023/12/17 12:43:57;;;;;;;10.43;10.13;;;11.50;99.90;;;;;;5043560;28;20215;-81
2023/12/17 12:46:24;;;;;;;10.70;10.40;;;11.70;99.90;;;;;;5042389;28;20223;-81
2023/12/17 12:48:56;;;;;;;10.20;9.90;;;12.00;99.90;;;;;;5042325;28;20331;-81
2023/12/17 12:51:26;;;;;;;10.30;10.00;;;12.20;99.90;;;;;;5042738;28;20235;-81
2023/12/17 12:53:54;;;;;;;10.47;10.17;;;12.30;99.90;;;;;;5043816;28;20227;-82
2023/12/17 12:56:21;;;;;;;10.50;10.20;;;12.40;99.90;;;;;;5042331;28;20232;-81
2023/12/17 12:58:48;;;;;;;10.63;10.33;;;12.50;99.90;;;;;;5043804;28;20235;-82
2023/12/17 13:01:16;;;;;;;10.70;10.40;;;12.30;99.90;;;;;;5047413;28;20248;-81
2023/12/17 13:03:44;;;;;;;10.53;10.23;;;12.10;99.90;;;;;;5044498;28;20244;-81
2023/12/17 13:06:11;;;;;;;10.53;10.23;;;11.80;99.90;;;;;;5042379;28;20227;-82
2023/12/17 13:08:41;;;;;;;10.40;10.10;;;11.50;99.90;;;;;;5052855;28;20242;-80
2023/12/17 13:11:08;;;;;;;10.30;10.00;;;11.30;99.90;;;;;;5056203;28;20228;-81
2023/12/17 13:13:36;;;;;;;10.60;10.30;;;11.20;99.90;;;;;;5052872;28;20239;-82
2023/12/17 13:16:03;;;;;;;10.40;10.10;;;11.10;99.90;;;;;;5047842;28;20755;-81
2023/12/17 13:18:30;;;;;;;10.20;9.90;;;10.90;99.90;;;;;;5045179;28;20239;-82
2023/12/17 13:20:58;;;;;;;10.30;10.00;;;10.80;99.90;;;;;;5042917;28;20267;-82
2023/12/17 13:23:25;;;;;;;10.30;10.00;;;10.80;99.90;;;;;;5042092;28;20223;-82
2023/12/17 13:25:55;;;;;;;10.10;9.80;;;10.80;99.90;;;;;;5042501;28;20223;-82
2023/12/17 13:28:23;;;;;;;10.00;9.70;;;10.80;99.90;;;;;;5041096;28;20327;-82
2023/12/17 13:30:50;;;;;;;10.10;9.80;;;10.90;99.90;;;;;;5040956;28;20254;-81
2023/12/17 13:33:17;;;;;;;10.00;9.70;;;11.10;99.90;;;;;;5041780;28;20238;-81